CheckWX is a tool to help pilots better visualize weather data.  It is not intended as a substitute for an official pre-flight weather briefing.

16:14:16 UTC

KGPH METAR
Midwest National Air Center Airport
Mosby, Missouri, USA
Current

59 mins ago

KGPH 261515Z AUTO 15004KT 10SM BKN010 OVC014 21/18 A3009 RMK AO2
Observed
May-26 @ 15:15 UTC
Wind
  • 150° at 4 KTS
Visibility
10 SM
Flight Rules
MVFR
Cloud Levels
  • Broken at 1,000' AGL
  • Overcast at 1,400' AGL
Temperature
21°C / 70°F
Dewpoint
18°C / 64°F
Humidity
83%
Altimeter
30.09" Hg
Pressure
1018.92 hPa
Previous

2 hours ago

KGPH 261435Z AUTO 00000KT 10SM OVC008 20/18 A3010 RMK AO2 LTG DSNT S AND NW
Observed
May-26 @ 14:35 UTC
Visibility
10 SM
Flight Rules
IFR
Cloud Levels
  • Overcast at 800' AGL
Temperature
20°C / 68°F
Dewpoint
18°C / 64°F
Humidity
88%
Altimeter
30.1" Hg
Pressure
1019.32 hPa
Previous

3 hours ago

KGPH 261315Z AUTO 00000KT 10SM SCT095 SCT110 20/18 A3006 RMK AO2 LTG DSNT SW
Observed
May-26 @ 13:15 UTC
Visibility
10 SM
Flight Rules
VFR
Cloud Levels
  • Scattered at 9,500' AGL
  • Scattered at 11,000' AGL
Temperature
20°C / 68°F
Dewpoint
18°C / 64°F
Humidity
88%
Altimeter
30.06" Hg
Pressure
1017.92 hPa